createdAt,value
2022-10-30T00:00:43.004Z,76.3
2022-10-30T00:03:58.276Z,76.2
2022-10-30T00:06:45.950Z,76.5
2022-10-30T00:09:34.121Z,76.1
2022-10-30T00:12:22.117Z,76.1
2022-10-30T00:15:10.899Z,76.5
2022-10-30T00:17:59.257Z,76.5
2022-10-30T00:20:48.097Z,77
2022-10-30T00:23:35.661Z,77.1
2022-10-30T00:26:23.972Z,76.7
2022-10-30T00:29:12.754Z,76.6
2022-10-30T00:32:32.359Z,76.2
2022-10-30T00:35:19.870Z,76.3
2022-10-30T00:38:07.931Z,76.8
2022-10-30T00:40:55.461Z,76.8
2022-10-30T00:44:15.151Z,76.6
2022-10-30T00:47:22.048Z,76.9
2022-10-30T00:50:15.392Z,76.7
2022-10-30T00:53:06.902Z,76.5
2022-10-30T00:55:58.198Z,76.8
2022-10-30T00:58:50.168Z,76.8
2022-10-30T01:01:43.874Z,76.6
2022-10-30T01:04:33.008Z,76.5
2022-10-30T01:07:23.504Z,76.7
2022-10-30T01:10:12.012Z,76.6
2022-10-30T01:13:00.766Z,76.7
2022-10-30T01:15:48.499Z,76.3
2022-10-30T01:19:27.895Z,76.9
2022-10-30T01:22:24.894Z,77.2
2022-10-30T01:25:28.713Z,77
2022-10-30T01:28:57.937Z,77.5
2022-10-30T01:31:57.721Z,77.6
2022-10-30T01:35:01.081Z,78
2022-10-30T01:37:55.416Z,77.5
2022-10-30T01:41:20.485Z,77.9
2022-10-30T01:44:09.223Z,77.2
2022-10-30T01:47:02.988Z,77.2
2022-10-30T01:50:35.624Z,77
2022-10-30T01:53:31.575Z,76.8
2022-10-30T01:56:31.975Z,76.8
2022-10-30T01:59:26.499Z,76.9
2022-10-30T02:02:18.416Z,77.4
2022-10-30T02:05:06.320Z,77.1
2022-10-30T02:08:29.494Z,76.7
2022-10-30T02:11:17.178Z,76.6
2022-10-30T02:14:04.878Z,76.9
2022-10-30T02:17:28.516Z,76.7
2022-10-30T02:20:16.210Z,76.9
2022-10-30T02:23:36.207Z,76.5
2022-10-30T02:26:24.211Z,76.1
2022-10-30T02:29:44.235Z,76.2
2022-10-30T02:32:32.006Z,76.4
2022-10-30T02:35:20.062Z,76.2
2022-10-30T02:38:08.178Z,75.9
2022-10-30T02:41:28.197Z,76.1
2022-10-30T02:44:15.978Z,75.9
2022-10-30T02:47:03.500Z,75.9
2022-10-30T02:50:23.371Z,76.5
2022-10-30T02:53:11.740Z,77
2022-10-30T02:55:59.336Z,76.1
2022-10-30T02:59:18.761Z,75.7
2022-10-30T03:02:06.388Z,75.6
2022-10-30T03:04:54.055Z,75.5
2022-10-30T03:07:41.535Z,75.3
2022-10-30T03:10:29.065Z,76.3
2022-10-30T03:13:16.703Z,76.6
2022-10-30T03:16:36.614Z,76.8
2022-10-30T03:19:24.679Z,77
2022-10-30T03:22:12.188Z,76.6
2022-10-30T03:24:59.827Z,76.8
2022-10-30T03:27:47.477Z,76.6
2022-10-30T03:30:35.236Z,76.6
2022-10-30T03:33:23.108Z,77.2
2022-10-30T03:36:11.761Z,77.3
2022-10-30T03:39:00.585Z,77
2022-10-30T03:41:48.370Z,77.1
2022-10-30T03:44:35.875Z,77.3
2022-10-30T03:47:23.745Z,77.7
2022-10-30T03:50:11.411Z,77.9
2022-10-30T03:52:59.189Z,77.7
2022-10-30T03:55:48.155Z,77.7
2022-10-30T03:59:08.459Z,77.8
2022-10-30T04:01:56.379Z,77.9
2022-10-30T04:04:44.622Z,78.1
2022-10-30T04:07:32.962Z,78.3
2022-10-30T04:10:23.750Z,78.4
2022-10-30T04:13:12.618Z,78.5
2022-10-30T04:16:01.735Z,78.8
2022-10-30T04:18:51.466Z,78.7
2022-10-30T04:21:39.138Z,78.9
2022-10-30T04:24:58.616Z,79.1
2022-10-30T04:27:46.090Z,79.1
2022-10-30T04:30:34.017Z,79.1
2022-10-30T04:33:23.508Z,79.2
2022-10-30T04:36:11.709Z,79.2
2022-10-30T04:38:59.408Z,79.4
2022-10-30T04:41:47.556Z,79.7
2022-10-30T04:44:35.070Z,79.6
2022-10-30T04:47:22.933Z,79.7
2022-10-30T04:50:11.608Z,79.7
2022-10-30T04:53:31.596Z,79.7
2022-10-30T04:56:19.141Z,79.9
2022-10-30T04:59:06.905Z,79.9
2022-10-30T05:02:26.460Z,79.9
2022-10-30T05:05:14.569Z,79.8
2022-10-30T05:08:02.815Z,79.7
2022-10-30T05:10:50.823Z,79.6
2022-10-30T05:14:11.449Z,79.4
2022-10-30T05:16:59.011Z,79.3
2022-10-30T05:19:46.482Z,79.4
2022-10-30T05:22:33.988Z,79.5
2022-10-30T05:25:21.773Z,79.2
2022-10-30T05:28:11.551Z,79.1
2022-10-30T05:31:30.984Z,79.4
2022-10-30T05:34:18.669Z,79.6
2022-10-30T05:37:06.207Z,79.7
2022-10-30T05:40:25.980Z,79.6
2022-10-30T05:43:14.234Z,79.5
2022-10-30T05:46:02.278Z,79.6
2022-10-30T05:49:22.428Z,79.7
2022-10-30T05:52:11.114Z,79.5
2022-10-30T05:54:58.851Z,79.5
2022-10-30T05:57:46.526Z,79.4
2022-10-30T06:00:34.205Z,79.6
2022-10-30T06:03:24.085Z,79.3
2022-10-30T06:06:44.112Z,79.4
2022-10-30T06:10:04.242Z,79.5
2022-10-30T06:12:52.915Z,79.7
2022-10-30T06:15:41.517Z,79.9
2022-10-30T06:18:30.212Z,80
2022-10-30T06:21:17.987Z,80.1
2022-10-30T06:24:05.586Z,80.1
2022-10-30T06:26:53.777Z,80.2
2022-10-30T06:30:13.543Z,80.3
2022-10-30T06:33:01.970Z,80.5
2022-10-30T06:35:50.847Z,80.5
2022-10-30T06:38:38.666Z,80.3
2022-10-30T06:41:30.261Z,80.2
2022-10-30T06:44:19.426Z,80.6
2022-10-30T06:47:07.771Z,80.7
2022-10-30T06:49:56.688Z,80.7
2022-10-30T06:52:44.248Z,80.4
2022-10-30T06:55:32.937Z,80.3
2022-10-30T06:58:20.712Z,80.6
2022-10-30T07:01:09.601Z,80.7
2022-10-30T07:04:29.202Z,81
2022-10-30T07:07:17.283Z,80.8
2022-10-30T07:10:05.252Z,80.7
2022-10-30T07:13:25.016Z,81.1
2022-10-30T07:16:12.680Z,81.4
2022-10-30T07:19:02.246Z,81.2
2022-10-30T07:21:52.360Z,81.2
2022-10-30T07:24:39.984Z,81
2022-10-30T07:27:27.485Z,81
2022-10-30T07:30:15.085Z,81.2
2022-10-30T07:33:05.201Z,81
2022-10-30T07:35:55.748Z,81
2022-10-30T07:38:46.935Z,80.9
2022-10-30T07:41:34.653Z,80.7
2022-10-30T07:44:22.524Z,80.4
2022-10-30T07:47:10.992Z,80.4
2022-10-30T07:50:30.713Z,80.7
2022-10-30T07:53:18.256Z,80.7
2022-10-30T07:56:05.849Z,80.6
2022-10-30T07:58:53.483Z,80.7
2022-10-30T08:01:41.366Z,80.2
2022-10-30T08:04:29.104Z,80.3
2022-10-30T08:07:50.644Z,80.1
2022-10-30T08:11:11.192Z,79.8
2022-10-30T08:13:58.715Z,79.6
2022-10-30T08:16:46.630Z,79.8
2022-10-30T08:19:35.989Z,79.5
2022-10-30T08:22:23.840Z,79.4
2022-10-30T08:25:11.791Z,79.3
2022-10-30T08:28:00.532Z,79.4
2022-10-30T08:30:56.628Z,79.1
2022-10-30T08:33:44.390Z,78.7
2022-10-30T08:37:03.875Z,78.1
2022-10-30T08:39:52.618Z,77.8
2022-10-30T08:42:40.240Z,77.9
2022-10-30T08:46:00.741Z,77.9
2022-10-30T08:48:48.464Z,77.8
2022-10-30T08:51:36.353Z,77.8
2022-10-30T08:54:24.381Z,77.3
2022-10-30T08:57:12.089Z,77.3
2022-10-30T08:59:59.727Z,77.5
2022-10-30T09:02:47.513Z,77.4
2022-10-30T09:05:35.154Z,76.8
2022-10-30T09:08:55.667Z,76.6
2022-10-30T09:11:43.452Z,76.6
2022-10-30T09:14:33.735Z,76.9
2022-10-30T09:17:54.305Z,76.9
2022-10-30T09:20:43.333Z,76.3
2022-10-30T09:23:33.407Z,76.5
2022-10-30T09:26:53.485Z,76.4
2022-10-30T09:29:40.967Z,75.8
2022-10-30T09:32:28.647Z,75.5
2022-10-30T09:35:16.284Z,75.2
2022-10-30T09:38:35.950Z,74.9
2022-10-30T09:41:23.747Z,74.3
2022-10-30T09:44:30.991Z,73.8
2022-10-30T09:47:33.596Z,73.8
2022-10-30T09:50:28.725Z,73.7
2022-10-30T09:53:22.549Z,73.9
2022-10-30T09:56:23.774Z,73.6
2022-10-30T09:59:17.662Z,72.8
2022-10-30T10:02:16.178Z,73.4
2022-10-30T10:05:19.285Z,73.4
2022-10-30T10:08:43.925Z,73
2022-10-30T10:11:37.756Z,72.5
2022-10-30T10:15:07.056Z,72.8
2022-10-30T10:21:28.908Z,72.5
2022-10-30T10:24:21.896Z,70.4
2022-10-30T10:27:13.973Z,69.3
2022-10-30T10:30:17.171Z,69.2
2022-10-30T10:33:06.298Z,69.4
2022-10-30T10:36:22.176Z,67.1
2022-10-30T10:39:20.344Z,67
2022-10-30T10:42:24.992Z,66.5
2022-10-30T10:45:25.221Z,66.6
2022-10-30T10:48:22.698Z,65.8
2022-10-30T10:51:36.518Z,65.8
2022-10-30T10:54:27.431Z,65.4
2022-10-30T10:57:21.464Z,64.2
2022-10-30T11:00:14.324Z,65.9
2022-10-30T11:03:04.731Z,64.3
2022-10-30T11:05:57.263Z,64.1
2022-10-30T11:08:53.484Z,64.3
2022-10-30T11:11:57.973Z,63.4
2022-10-30T11:14:45.554Z,63.2
2022-10-30T11:18:19.137Z,62.3
2022-10-30T11:21:06.906Z,62.7
2022-10-30T11:23:56.856Z,64.2
2022-10-30T11:26:44.504Z,63.5
2022-10-30T11:29:32.030Z,63.2
2022-10-30T11:32:20.282Z,61.2
2022-10-30T11:35:12.110Z,61.4
2022-10-30T11:38:02.752Z,60.5
2022-10-30T11:41:03.257Z,61
2022-10-30T11:43:51.236Z,59.2
2022-10-30T11:46:38.999Z,60.1
2022-10-30T11:50:00.275Z,61.9
2022-10-30T11:52:51.696Z,61.7
2022-10-30T11:55:42.137Z,61.6
2022-10-30T11:58:33.316Z,61.2
2022-10-30T12:01:24.373Z,60.8
2022-10-30T12:04:14.367Z,59.7
2022-10-30T12:07:09.954Z,60.5
2022-10-30T12:10:10.012Z,60.7
2022-10-30T12:13:38.944Z,60.3
2022-10-30T12:16:27.268Z,61
2022-10-30T12:19:16.013Z,61.3
2022-10-30T12:22:39.355Z,59.8
2022-10-30T12:25:27.138Z,60.3
2022-10-30T12:28:16.727Z,59.9
2022-10-30T12:31:07.396Z,60.3
2022-10-30T12:34:35.922Z,60.1
2022-10-30T12:37:29.679Z,60.7
2022-10-30T12:40:23.269Z,60.5
2022-10-30T12:43:15.281Z,60.6
2022-10-30T12:46:09.962Z,61
2022-10-30T12:49:33.970Z,61.5
2022-10-30T12:52:26.502Z,62.2
2022-10-30T12:55:21.135Z,61.9
2022-10-30T12:58:15.184Z,61.4
2022-10-30T13:01:13.253Z,62
2022-10-30T13:04:11.369Z,62.2
2022-10-30T13:07:03.894Z,62.8
2022-10-30T13:10:01.637Z,62.9
2022-10-30T13:13:26.806Z,63.3
2022-10-30T13:16:48.996Z,63.8
2022-10-30T13:19:37.575Z,64
2022-10-30T13:23:00.113Z,64.1
2022-10-30T13:25:55.888Z,64.7
2022-10-30T13:28:54.072Z,64.4
2022-10-30T13:31:50.223Z,64.5
2022-10-30T13:34:50.484Z,64.5
2022-10-30T13:37:45.593Z,64.5
2022-10-30T13:40:41.981Z,64.6
2022-10-30T13:43:41.695Z,64.8
2022-10-30T13:47:15.711Z,64.9
2022-10-30T13:50:46.890Z,65.1
2022-10-30T13:53:58.675Z,64.9
2022-10-30T13:56:54.528Z,65.3
2022-10-30T13:59:48.787Z,65.2
2022-10-30T14:02:46.611Z,65.5
2022-10-30T14:06:00.390Z,65.5
2022-10-30T14:08:57.342Z,65.9
2022-10-30T14:11:55.768Z,66
2022-10-30T14:15:36.010Z,66.2
2022-10-30T14:18:28.221Z,66.3
2022-10-30T14:21:27.751Z,66.8
2022-10-30T14:24:48.604Z,67.1
2022-10-30T14:27:36.344Z,67.1
2022-10-30T14:31:05.019Z,66.9
2022-10-30T14:33:55.305Z,67.2
2022-10-30T14:36:43.503Z,67.2
2022-10-30T14:39:34.731Z,67.3
2022-10-30T14:42:25.346Z,67.5
2022-10-30T14:45:17.871Z,67.7
2022-10-30T14:48:12.209Z,67.8
2022-10-30T14:51:07.116Z,67.7
2022-10-30T14:54:04.601Z,67.8
2022-10-30T14:57:01.692Z,68.1
2022-10-30T15:00:32.579Z,68.2
2022-10-30T15:03:26.564Z,68.4
2022-10-30T15:06:34.740Z,68.7
2022-10-30T15:10:05.480Z,69.1
2022-10-30T15:13:02.605Z,69.3
2022-10-30T15:15:58.530Z,69.5
2022-10-30T15:18:50.472Z,69.6
2022-10-30T15:21:43.642Z,69.6
2022-10-30T15:24:36.413Z,70
2022-10-30T15:27:25.643Z,70.1
2022-10-30T15:30:14.226Z,70.1
2022-10-30T15:33:04.440Z,70.3
2022-10-30T15:36:25.977Z,70.3
2022-10-30T15:39:58.443Z,70.3
2022-10-30T15:43:01.897Z,70.5
2022-10-30T15:45:52.657Z,70.7
2022-10-30T15:48:41.117Z,70.8
2022-10-30T15:51:31.999Z,70.7
2022-10-30T15:54:20.956Z,70.8
2022-10-30T15:57:49.424Z,70.7
2022-10-30T16:00:48.906Z,70.6
2022-10-30T16:03:48.296Z,71
2022-10-30T16:06:38.259Z,71.1
2022-10-30T16:09:32.184Z,71.3
2022-10-30T16:13:01.052Z,71.2
2022-10-30T16:15:49.781Z,71
2022-10-30T16:18:37.432Z,71.2
2022-10-30T16:21:26.478Z,71.7
2022-10-30T16:24:15.672Z,71.9
2022-10-30T16:27:03.653Z,71.5
2022-10-30T16:29:59.365Z,71.7
2022-10-30T16:32:47.892Z,72.1
2022-10-30T16:35:39.264Z,71.6
2022-10-30T16:38:27.072Z,71.6
2022-10-30T16:41:24.142Z,71.7
2022-10-30T16:44:16.722Z,72.4
2022-10-30T16:47:11.241Z,72.5
2022-10-30T16:50:10.546Z,72.2
2022-10-30T16:53:02.088Z,72.5
2022-10-30T16:55:51.501Z,72.5
2022-10-30T16:58:41.328Z,72.3
2022-10-30T17:01:29.664Z,72.6
2022-10-30T17:04:17.973Z,72.7
2022-10-30T17:07:05.881Z,72.6
2022-10-30T17:10:03.677Z,72.7
2022-10-30T17:13:17.182Z,72.5
2022-10-30T17:16:24.963Z,72.9
2022-10-30T17:19:45.084Z,72.6
2022-10-30T17:22:34.566Z,72.7
2022-10-30T17:25:22.666Z,73
2022-10-30T17:28:19.829Z,73.4
2022-10-30T17:31:13.147Z,73.4
2022-10-30T17:34:33.651Z,73.9
2022-10-30T17:38:02.611Z,73.8
2022-10-30T17:40:50.846Z,73.9
2022-10-30T17:43:38.757Z,73.9
2022-10-30T17:47:05.681Z,74.1
2022-10-30T17:50:00.178Z,73.7
2022-10-30T17:52:50.131Z,73.5
2022-10-30T17:56:11.758Z,73.4
2022-10-30T17:59:01.511Z,73.4
2022-10-30T18:01:49.236Z,73.1
2022-10-30T18:04:36.971Z,73.1
2022-10-30T18:07:26.841Z,73.1
2022-10-30T18:10:14.436Z,73.5
2022-10-30T18:13:02.738Z,73.5
2022-10-30T18:15:50.706Z,73.4
2022-10-30T18:19:11.895Z,73.8
2022-10-30T18:21:59.458Z,73.7
2022-10-30T18:25:19.185Z,74.2
2022-10-30T18:28:38.897Z,74.2
2022-10-30T18:31:26.785Z,73.9
2022-10-30T18:34:14.482Z,74
2022-10-30T18:37:05.784Z,73.8
2022-10-30T18:39:54.264Z,73.7
2022-10-30T18:43:14.004Z,73.5
2022-10-30T18:46:33.406Z,73.8
2022-10-30T18:49:21.157Z,74.3
2022-10-30T18:52:13.467Z,74.7
2022-10-30T18:55:33.415Z,74
2022-10-30T18:58:23.192Z,74.1
2022-10-30T19:01:12.732Z,73.9
2022-10-30T19:04:02.308Z,73.9
2022-10-30T19:06:54.037Z,73.5
2022-10-30T19:09:41.967Z,73.4
2022-10-30T19:12:29.694Z,73.2
2022-10-30T19:16:00.330Z,73
2022-10-30T19:18:48.735Z,73.2
2022-10-30T19:21:36.468Z,73.1
2022-10-30T19:24:57.013Z,73.2
2022-10-30T19:27:44.542Z,73.1
2022-10-30T19:30:32.248Z,73
2022-10-30T19:33:19.735Z,73.1
2022-10-30T19:36:08.758Z,72.8
2022-10-30T19:39:13.228Z,72.9
2022-10-30T19:42:01.569Z,73.3
2022-10-30T19:45:20.947Z,73.4
2022-10-30T19:48:11.240Z,73.5
2022-10-30T19:51:31.013Z,73.2
2022-10-30T19:54:18.576Z,73.3
2022-10-30T19:57:06.333Z,73.4
2022-10-30T19:59:58.287Z,73.2
2022-10-30T20:03:19.960Z,73.5
2022-10-30T20:06:07.547Z,73.6
2022-10-30T20:08:57.099Z,73.1
2022-10-30T20:11:47.194Z,73.2
2022-10-30T20:14:34.718Z,73.3
2022-10-30T20:17:22.414Z,73.1
2022-10-30T20:20:11.265Z,73.2
2022-10-30T20:23:01.731Z,73.1
2022-10-30T20:26:22.057Z,73.1
2022-10-30T20:29:13.556Z,73.2
2022-10-30T20:32:01.670Z,73.1
2022-10-30T20:35:21.369Z,73
2022-10-30T20:38:09.812Z,73.3
2022-10-30T20:41:29.515Z,73.3
2022-10-30T20:44:18.147Z,73.4
2022-10-30T20:47:05.687Z,74
2022-10-30T20:50:25.776Z,73.5
2022-10-30T20:53:46.981Z,73.4
2022-10-30T20:56:34.716Z,73.9
2022-10-30T20:59:22.589Z,73.4
2022-10-30T21:02:11.229Z,73
2022-10-30T21:05:11.592Z,73.4
2022-10-30T21:08:11.812Z,73.3
2022-10-30T21:10:59.986Z,73
2022-10-30T21:13:49.500Z,73.9
2022-10-30T21:16:41.037Z,73.2
2022-10-30T21:19:28.581Z,72.9
2022-10-30T21:22:16.154Z,73.3
2022-10-30T21:25:36.195Z,73.4
2022-10-30T21:28:24.606Z,73.4
2022-10-30T21:31:44.404Z,73.5
2022-10-30T21:34:32.129Z,73.2
2022-10-30T21:37:19.874Z,73.3
2022-10-30T21:40:07.629Z,73.3
2022-10-30T21:43:27.110Z,73.4
2022-10-30T21:46:14.742Z,73.6
2022-10-30T21:49:35.565Z,73.7
2022-10-30T21:52:23.593Z,73.5
2022-10-30T21:55:12.276Z,73.3
2022-10-30T21:58:00.150Z,73.1
2022-10-30T22:01:20.891Z,73.1
2022-10-30T22:04:11.194Z,73
2022-10-30T22:06:59.074Z,73.2
2022-10-30T22:09:46.634Z,73.5
2022-10-30T22:12:34.282Z,73.2
2022-10-30T22:15:21.777Z,73.2
2022-10-30T22:18:41.704Z,73.1
2022-10-30T22:21:29.562Z,73
2022-10-30T22:24:48.953Z,73
2022-10-30T22:27:36.406Z,73.2
2022-10-30T22:30:24.858Z,73.3
2022-10-30T22:33:13.277Z,73.4
2022-10-30T22:36:01.294Z,73.9
2022-10-30T22:38:50.820Z,74.1
2022-10-30T22:42:11.253Z,73.5
2022-10-30T22:44:58.861Z,74
2022-10-30T22:47:46.463Z,73.7
2022-10-30T22:51:05.986Z,74.2
2022-10-30T22:53:55.301Z,73.9
2022-10-30T22:57:14.651Z,73.9
2022-10-30T23:00:02.468Z,74.1
2022-10-30T23:02:52.495Z,74.5
2022-10-30T23:05:40.132Z,74.1
2022-10-30T23:08:27.712Z,74
2022-10-30T23:11:15.516Z,74.6
2022-10-30T23:14:03.051Z,74
2022-10-30T23:16:50.491Z,74
2022-10-30T23:19:38.215Z,74.9
2022-10-30T23:22:25.982Z,74.6
2022-10-30T23:25:13.928Z,74.7
2022-10-30T23:28:01.884Z,74.5
2022-10-30T23:30:50.009Z,74.6
2022-10-30T23:33:37.538Z,74.8
2022-10-30T23:36:25.373Z,74.2
2022-10-30T23:39:13.784Z,74.1
2022-10-30T23:42:02.812Z,74.1
2022-10-30T23:44:50.423Z,74.2
2022-10-30T23:47:42.526Z,73.9
2022-10-30T23:50:30.434Z,74.1
2022-10-30T23:53:19.432Z,74.6
2022-10-30T23:56:07.238Z,74.5
2022-10-30T23:58:55.206Z,74.2
